sensor_id;sensor_type;location;lat;lon;timestamp;P1;durP1;ratioP1;P2;durP2;ratioP2
72575;SDS011;60613;48.658;2.328;2024-03-17T00:01:44;6.65;;;2.20;;
72575;SDS011;60613;48.658;2.328;2024-03-17T00:04:09;6.70;;;2.20;;
72575;SDS011;60613;48.658;2.328;2024-03-17T00:06:35;6.05;;;2.17;;
72575;SDS011;60613;48.658;2.328;2024-03-17T00:09:00;6.93;;;2.10;;
72575;SDS011;60613;48.658;2.328;2024-03-17T00:11:31;7.03;;;2.28;;
72575;SDS011;60613;48.658;2.328;2024-03-17T00:14:00;5.78;;;2.10;;
72575;SDS011;60613;48.658;2.328;2024-03-17T00:16:30;6.13;;;2.20;;
72575;SDS011;60613;48.658;2.328;2024-03-17T00:18:55;7.53;;;2.30;;
72575;SDS011;60613;48.658;2.328;2024-03-17T00:21:21;6.47;;;2.00;;
72575;SDS011;60613;48.658;2.328;2024-03-17T00:23:47;6.25;;;1.80;;
72575;SDS011;60613;48.658;2.328;2024-03-17T00:26:16;5.93;;;2.00;;
72575;SDS011;60613;48.658;2.328;2024-03-17T00:28:44;5.65;;;2.00;;
72575;SDS011;60613;48.658;2.328;2024-03-17T00:31:13;6.03;;;2.20;;
72575;SDS011;60613;48.658;2.328;2024-03-17T00:33:39;6.27;;;1.93;;
72575;SDS011;60613;48.658;2.328;2024-03-17T00:36:05;6.20;;;2.00;;
72575;SDS011;60613;48.658;2.328;2024-03-17T00:38:31;6.07;;;2.13;;
72575;SDS011;60613;48.658;2.328;2024-03-17T00:40:57;5.30;;;2.10;;
72575;SDS011;60613;48.658;2.328;2024-03-17T00:43:22;6.40;;;2.10;;
72575;SDS011;60613;48.658;2.328;2024-03-17T00:45:51;6.00;;;2.08;;
72575;SDS011;60613;48.658;2.328;2024-03-17T00:48:17;6.05;;;2.00;;
72575;SDS011;60613;48.658;2.328;2024-03-17T00:50:43;5.53;;;2.30;;
72575;SDS011;60613;48.658;2.328;2024-03-17T00:53:12;5.40;;;2.03;;
72575;SDS011;60613;48.658;2.328;2024-03-17T00:55:39;6.63;;;2.10;;
72575;SDS011;60613;48.658;2.328;2024-03-17T00:58:04;7.57;;;2.37;;
72575;SDS011;60613;48.658;2.328;2024-03-17T01:00:30;6.97;;;1.77;;
72575;SDS011;60613;48.658;2.328;2024-03-17T01:02:58;6.47;;;2.10;;
72575;SDS011;60613;48.658;2.328;2024-03-17T01:05:23;6.10;;;2.30;;
72575;SDS011;60613;48.658;2.328;2024-03-17T01:07:49;7.17;;;2.10;;
72575;SDS011;60613;48.658;2.328;2024-03-17T01:10:15;6.25;;;2.05;;
72575;SDS011;60613;48.658;2.328;2024-03-17T01:12:40;4.67;;;1.80;;
72575;SDS011;60613;48.658;2.328;2024-03-17T01:15:06;6.25;;;1.98;;
72575;SDS011;60613;48.658;2.328;2024-03-17T01:17:33;6.25;;;2.30;;
72575;SDS011;60613;48.658;2.328;2024-03-17T01:19:59;6.23;;;2.10;;
72575;SDS011;60613;48.658;2.328;2024-03-17T01:22:24;5.65;;;2.15;;
72575;SDS011;60613;48.658;2.328;2024-03-17T01:24:50;6.80;;;2.40;;
72575;SDS011;60613;48.658;2.328;2024-03-17T01:27:15;6.22;;;2.30;;
72575;SDS011;60613;48.658;2.328;2024-03-17T01:29:44;7.80;;;2.40;;
72575;SDS011;60613;48.658;2.328;2024-03-17T01:32:09;7.13;;;2.42;;
72575;SDS011;60613;48.658;2.328;2024-03-17T01:34:36;7.45;;;2.10;;
72575;SDS011;60613;48.658;2.328;2024-03-17T01:37:02;7.40;;;2.30;;
72575;SDS011;60613;48.658;2.328;2024-03-17T01:39:29;7.65;;;2.50;;
72575;SDS011;60613;48.658;2.328;2024-03-17T01:41:54;6.35;;;2.40;;
72575;SDS011;60613;48.658;2.328;2024-03-17T01:44:24;6.50;;;2.20;;
72575;SDS011;60613;48.658;2.328;2024-03-17T01:46:52;6.38;;;2.20;;
72575;SDS011;60613;48.658;2.328;2024-03-17T01:49:18;6.65;;;2.50;;
72575;SDS011;60613;48.658;2.328;2024-03-17T01:51:46;8.10;;;2.60;;
72575;SDS011;60613;48.658;2.328;2024-03-17T01:54:13;7.40;;;2.17;;
72575;SDS011;60613;48.658;2.328;2024-03-17T01:56:39;8.33;;;2.27;;
72575;SDS011;60613;48.658;2.328;2024-03-17T01:59:05;6.70;;;2.25;;
72575;SDS011;60613;48.658;2.328;2024-03-17T02:01:32;6.95;;;2.47;;
72575;SDS011;60613;48.658;2.328;2024-03-17T02:03:58;7.27;;;2.43;;
72575;SDS011;60613;48.658;2.328;2024-03-17T02:06:24;7.45;;;2.63;;
72575;SDS011;60613;48.658;2.328;2024-03-17T02:08:53;8.88;;;2.30;;
72575;SDS011;60613;48.658;2.328;2024-03-17T02:11:32;7.63;;;2.70;;
72575;SDS011;60613;48.658;2.328;2024-03-17T02:13:58;7.57;;;2.50;;
72575;SDS011;60613;48.658;2.328;2024-03-17T02:16:25;7.50;;;2.58;;
72575;SDS011;60613;48.658;2.328;2024-03-17T02:18:54;6.85;;;2.42;;
72575;SDS011;60613;48.658;2.328;2024-03-17T02:21:21;7.37;;;2.17;;
72575;SDS011;60613;48.658;2.328;2024-03-17T02:23:50;8.07;;;2.38;;
72575;SDS011;60613;48.658;2.328;2024-03-17T02:26:16;7.53;;;2.30;;
72575;SDS011;60613;48.658;2.328;2024-03-17T02:28:43;7.30;;;2.42;;
72575;SDS011;60613;48.658;2.328;2024-03-17T02:31:11;7.45;;;2.53;;
72575;SDS011;60613;48.658;2.328;2024-03-17T02:33:37;7.23;;;2.33;;
72575;SDS011;60613;48.658;2.328;2024-03-17T02:36:04;7.03;;;2.10;;
72575;SDS011;60613;48.658;2.328;2024-03-17T02:38:32;7.50;;;2.60;;
72575;SDS011;60613;48.658;2.328;2024-03-17T02:41:18;6.75;;;2.08;;
72575;SDS011;60613;48.658;2.328;2024-03-17T02:43:44;7.63;;;2.40;;
72575;SDS011;60613;48.658;2.328;2024-03-17T02:46:13;6.38;;;2.28;;
72575;SDS011;60613;48.658;2.328;2024-03-17T02:48:42;7.15;;;2.20;;
72575;SDS011;60613;48.658;2.328;2024-03-17T02:51:14;7.88;;;2.63;;
72575;SDS011;60613;48.658;2.328;2024-03-17T02:53:41;7.40;;;2.50;;
72575;SDS011;60613;48.658;2.328;2024-03-17T02:56:08;7.00;;;2.40;;
72575;SDS011;60613;48.658;2.328;2024-03-17T02:58:35;5.97;;;2.20;;
72575;SDS011;60613;48.658;2.328;2024-03-17T03:01:01;6.43;;;2.30;;
72575;SDS011;60613;48.658;2.328;2024-03-17T03:03:28;6.63;;;2.30;;
72575;SDS011;60613;48.658;2.328;2024-03-17T03:05:53;6.87;;;2.30;;
72575;SDS011;60613;48.658;2.328;2024-03-17T03:08:21;6.65;;;2.60;;
72575;SDS011;60613;48.658;2.328;2024-03-17T03:10:47;6.63;;;2.08;;
72575;SDS011;60613;48.658;2.328;2024-03-17T03:13:13;6.27;;;2.30;;
72575;SDS011;60613;48.658;2.328;2024-03-17T03:15:39;5.75;;;2.30;;
72575;SDS011;60613;48.658;2.328;2024-03-17T03:18:04;6.97;;;2.30;;
72575;SDS011;60613;48.658;2.328;2024-03-17T03:20:30;5.45;;;2.05;;
72575;SDS011;60613;48.658;2.328;2024-03-17T03:22:56;6.73;;;2.40;;
72575;SDS011;60613;48.658;2.328;2024-03-17T03:25:21;6.53;;;2.30;;
72575;SDS011;60613;48.658;2.328;2024-03-17T03:27:47;6.50;;;2.33;;
72575;SDS011;60613;48.658;2.328;2024-03-17T03:30:12;6.43;;;2.10;;
72575;SDS011;60613;48.658;2.328;2024-03-17T03:32:40;6.90;;;2.15;;
72575;SDS011;60613;48.658;2.328;2024-03-17T03:35:07;6.80;;;2.50;;
72575;SDS011;60613;48.658;2.328;2024-03-17T03:37:33;6.60;;;2.15;;
72575;SDS011;60613;48.658;2.328;2024-03-17T03:39:58;5.47;;;1.90;;
72575;SDS011;60613;48.658;2.328;2024-03-17T03:42:24;6.43;;;2.28;;
72575;SDS011;60613;48.658;2.328;2024-03-17T03:44:50;6.20;;;2.40;;
72575;SDS011;60613;48.658;2.328;2024-03-17T03:47:15;6.60;;;2.13;;
72575;SDS011;60613;48.658;2.328;2024-03-17T03:49:41;6.47;;;2.30;;
72575;SDS011;60613;48.658;2.328;2024-03-17T03:52:06;6.50;;;2.20;;
72575;SDS011;60613;48.658;2.328;2024-03-17T03:54:33;5.97;;;2.17;;
72575;SDS011;60613;48.658;2.328;2024-03-17T03:56:58;7.33;;;2.30;;
72575;SDS011;60613;48.658;2.328;2024-03-17T03:59:24;5.88;;;1.95;;
72575;SDS011;60613;48.658;2.328;2024-03-17T04:01:50;6.43;;;2.07;;
72575;SDS011;60613;48.658;2.328;2024-03-17T04:04:15;7.57;;;2.20;;
72575;SDS011;60613;48.658;2.328;2024-03-17T04:06:41;5.60;;;2.00;;
72575;SDS011;60613;48.658;2.328;2024-03-17T04:09:07;5.72;;;1.88;;
72575;SDS011;60613;48.658;2.328;2024-03-17T04:11:34;6.65;;;1.98;;
72575;SDS011;60613;48.658;2.328;2024-03-17T04:14:00;5.15;;;1.80;;
72575;SDS011;60613;48.658;2.328;2024-03-17T04:16:26;6.37;;;1.83;;
72575;SDS011;60613;48.658;2.328;2024-03-17T04:18:53;4.95;;;1.75;;
72575;SDS011;60613;48.658;2.328;2024-03-17T04:21:18;5.55;;;1.95;;
72575;SDS011;60613;48.658;2.328;2024-03-17T04:23:46;7.13;;;1.90;;
72575;SDS011;60613;48.658;2.328;2024-03-17T04:26:11;5.18;;;1.80;;
72575;SDS011;60613;48.658;2.328;2024-03-17T04:28:38;5.13;;;1.80;;
72575;SDS011;60613;48.658;2.328;2024-03-17T04:31:04;6.27;;;1.80;;
72575;SDS011;60613;48.658;2.328;2024-03-17T04:33:33;6.05;;;1.83;;
72575;SDS011;60613;48.658;2.328;2024-03-17T04:35:59;5.32;;;1.75;;
72575;SDS011;60613;48.658;2.328;2024-03-17T04:38:27;5.95;;;1.88;;
72575;SDS011;60613;48.658;2.328;2024-03-17T04:40:53;6.07;;;2.00;;
72575;SDS011;60613;48.658;2.328;2024-03-17T04:43:29;5.05;;;1.90;;
72575;SDS011;60613;48.658;2.328;2024-03-17T04:46:00;4.88;;;1.67;;
72575;SDS011;60613;48.658;2.328;2024-03-17T04:48:28;5.57;;;1.70;;
72575;SDS011;60613;48.658;2.328;2024-03-17T04:50:54;5.32;;;1.80;;
72575;SDS011;60613;48.658;2.328;2024-03-17T04:53:20;5.18;;;1.83;;
72575;SDS011;60613;48.658;2.328;2024-03-17T04:55:45;5.63;;;1.80;;
72575;SDS011;60613;48.658;2.328;2024-03-17T04:58:11;5.20;;;1.70;;
72575;SDS011;60613;48.658;2.328;2024-03-17T05:00:36;5.90;;;1.83;;
72575;SDS011;60613;48.658;2.328;2024-03-17T05:03:02;5.27;;;1.80;;
72575;SDS011;60613;48.658;2.328;2024-03-17T05:05:28;4.65;;;1.80;;
72575;SDS011;60613;48.658;2.328;2024-03-17T05:07:54;4.82;;;1.67;;
72575;SDS011;60613;48.658;2.328;2024-03-17T05:10:20;5.03;;;1.80;;
72575;SDS011;60613;48.658;2.328;2024-03-17T05:12:45;4.57;;;1.60;;
72575;SDS011;60613;48.658;2.328;2024-03-17T05:15:13;5.57;;;1.70;;
72575;SDS011;60613;48.658;2.328;2024-03-17T05:17:38;5.85;;;1.85;;
72575;SDS011;60613;48.658;2.328;2024-03-17T05:20:04;4.57;;;1.70;;
72575;SDS011;60613;48.658;2.328;2024-03-17T05:22:31;4.70;;;1.55;;
72575;SDS011;60613;48.658;2.328;2024-03-17T05:24:56;4.75;;;1.60;;
72575;SDS011;60613;48.658;2.328;2024-03-17T05:27:22;4.80;;;1.70;;
72575;SDS011;60613;48.658;2.328;2024-03-17T05:29:48;4.65;;;1.60;;
72575;SDS011;60613;48.658;2.328;2024-03-17T05:32:15;4.47;;;1.73;;
72575;SDS011;60613;48.658;2.328;2024-03-17T05:34:41;4.32;;;1.55;;
72575;SDS011;60613;48.658;2.328;2024-03-17T05:37:06;5.47;;;1.67;;
72575;SDS011;60613;48.658;2.328;2024-03-17T05:39:32;4.85;;;1.70;;
72575;SDS011;60613;48.658;2.328;2024-03-17T05:41:57;5.27;;;1.70;;
72575;SDS011;60613;48.658;2.328;2024-03-17T05:44:23;5.63;;;1.70;;
72575;SDS011;60613;48.658;2.328;2024-03-17T05:46:48;5.10;;;1.80;;
72575;SDS011;60613;48.658;2.328;2024-03-17T05:49:16;4.63;;;1.50;;
72575;SDS011;60613;48.658;2.328;2024-03-17T05:51:42;3.83;;;1.47;;
72575;SDS011;60613;48.658;2.328;2024-03-17T05:54:08;5.00;;;1.75;;
72575;SDS011;60613;48.658;2.328;2024-03-17T05:56:34;5.10;;;1.70;;
72575;SDS011;60613;48.658;2.328;2024-03-17T05:59:00;6.07;;;1.75;;
72575;SDS011;60613;48.658;2.328;2024-03-17T06:01:26;5.28;;;1.58;;
72575;SDS011;60613;48.658;2.328;2024-03-17T06:03:52;5.27;;;1.57;;
72575;SDS011;60613;48.658;2.328;2024-03-17T06:06:17;5.35;;;1.80;;
72575;SDS011;60613;48.658;2.328;2024-03-17T06:08:43;4.37;;;1.50;;
72575;SDS011;60613;48.658;2.328;2024-03-17T06:11:08;5.23;;;1.53;;
72575;SDS011;60613;48.658;2.328;2024-03-17T06:13:35;5.00;;;1.58;;
72575;SDS011;60613;48.658;2.328;2024-03-17T06:16:02;5.22;;;1.60;;
72575;SDS011;60613;48.658;2.328;2024-03-17T06:18:28;4.88;;;1.42;;
72575;SDS011;60613;48.658;2.328;2024-03-17T06:20:54;4.65;;;1.40;;
72575;SDS011;60613;48.658;2.328;2024-03-17T06:23:23;3.77;;;1.40;;
72575;SDS011;60613;48.658;2.328;2024-03-17T06:25:49;4.88;;;1.50;;
72575;SDS011;60613;48.658;2.328;2024-03-17T06:28:16;5.07;;;1.50;;
72575;SDS011;60613;48.658;2.328;2024-03-17T06:30:42;3.80;;;1.30;;
72575;SDS011;60613;48.658;2.328;2024-03-17T06:33:11;4.45;;;1.40;;
72575;SDS011;60613;48.658;2.328;2024-03-17T06:35:38;3.77;;;1.40;;
72575;SDS011;60613;48.658;2.328;2024-03-17T06:38:04;4.18;;;1.40;;
72575;SDS011;60613;48.658;2.328;2024-03-17T06:40:29;4.45;;;1.40;;
72575;SDS011;60613;48.658;2.328;2024-03-17T06:42:55;4.63;;;1.38;;
72575;SDS011;60613;48.658;2.328;2024-03-17T06:45:22;4.53;;;1.40;;
72575;SDS011;60613;48.658;2.328;2024-03-17T06:47:49;5.18;;;1.58;;
72575;SDS011;60613;48.658;2.328;2024-03-17T06:50:15;4.15;;;1.40;;
72575;SDS011;60613;48.658;2.328;2024-03-17T06:52:40;3.77;;;1.50;;
72575;SDS011;60613;48.658;2.328;2024-03-17T06:55:06;4.67;;;1.50;;
72575;SDS011;60613;48.658;2.328;2024-03-17T06:57:32;3.55;;;1.27;;
72575;SDS011;60613;48.658;2.328;2024-03-17T06:59:59;4.18;;;1.30;;
72575;SDS011;60613;48.658;2.328;2024-03-17T07:02:25;4.75;;;1.40;;
72575;SDS011;60613;48.658;2.328;2024-03-17T07:04:50;3.77;;;1.73;;
72575;SDS011;60613;48.658;2.328;2024-03-17T07:07:16;4.03;;;1.50;;
72575;SDS011;60613;48.658;2.328;2024-03-17T07:09:41;4.28;;;1.42;;
72575;SDS011;60613;48.658;2.328;2024-03-17T07:12:07;3.87;;;1.20;;
72575;SDS011;60613;48.658;2.328;2024-03-17T07:14:34;4.40;;;1.30;;
72575;SDS011;60613;48.658;2.328;2024-03-17T07:17:00;3.63;;;1.23;;
72575;SDS011;60613;48.658;2.328;2024-03-17T07:19:26;4.53;;;1.40;;
72575;SDS011;60613;48.658;2.328;2024-03-17T07:21:53;4.90;;;1.38;;
72575;SDS011;60613;48.658;2.328;2024-03-17T07:24:19;4.38;;;1.33;;
72575;SDS011;60613;48.658;2.328;2024-03-17T07:26:47;5.32;;;1.40;;
72575;SDS011;60613;48.658;2.328;2024-03-17T07:29:13;5.00;;;1.48;;
72575;SDS011;60613;48.658;2.328;2024-03-17T07:31:39;4.40;;;1.40;;
72575;SDS011;60613;48.658;2.328;2024-03-17T07:34:04;4.60;;;1.30;;
72575;SDS011;60613;48.658;2.328;2024-03-17T07:36:30;4.03;;;1.23;;
72575;SDS011;60613;48.658;2.328;2024-03-17T07:38:56;3.47;;;1.10;;
72575;SDS011;60613;48.658;2.328;2024-03-17T07:41:21;3.90;;;1.33;;
72575;SDS011;60613;48.658;2.328;2024-03-17T07:43:49;4.93;;;1.63;;
72575;SDS011;60613;48.658;2.328;2024-03-17T07:46:14;4.63;;;1.50;;
72575;SDS011;60613;48.658;2.328;2024-03-17T07:48:41;4.57;;;1.35;;
72575;SDS011;60613;48.658;2.328;2024-03-17T07:51:11;5.13;;;1.50;;
72575;SDS011;60613;48.658;2.328;2024-03-17T07:53:40;4.57;;;1.30;;
72575;SDS011;60613;48.658;2.328;2024-03-17T07:56:07;3.53;;;1.20;;
72575;SDS011;60613;48.658;2.328;2024-03-17T07:58:38;5.53;;;1.40;;
72575;SDS011;60613;48.658;2.328;2024-03-17T08:01:05;4.65;;;1.35;;
72575;SDS011;60613;48.658;2.328;2024-03-17T08:03:34;5.63;;;1.80;;
72575;SDS011;60613;48.658;2.328;2024-03-17T08:06:01;8.93;;;2.50;;
72575;SDS011;60613;48.658;2.328;2024-03-17T08:08:28;8.73;;;2.63;;
72575;SDS011;60613;48.658;2.328;2024-03-17T08:10:54;7.22;;;2.17;;
72575;SDS011;60613;48.658;2.328;2024-03-17T08:13:20;7.20;;;2.15;;
72575;SDS011;60613;48.658;2.328;2024-03-17T08:15:47;8.10;;;2.13;;
72575;SDS011;60613;48.658;2.328;2024-03-17T08:18:24;7.23;;;2.10;;
72575;SDS011;60613;48.658;2.328;2024-03-17T08:20:50;6.25;;;2.03;;
72575;SDS011;60613;48.658;2.328;2024-03-17T08:23:16;9.05;;;2.15;;
72575;SDS011;60613;48.658;2.328;2024-03-17T08:25:42;8.63;;;2.33;;
72575;SDS011;60613;48.658;2.328;2024-03-17T08:28:07;8.15;;;2.13;;
72575;SDS011;60613;48.658;2.328;2024-03-17T08:30:33;6.30;;;1.90;;
72575;SDS011;60613;48.658;2.328;2024-03-17T08:32:59;8.70;;;2.30;;
72575;SDS011;60613;48.658;2.328;2024-03-17T08:35:25;8.65;;;2.20;;
72575;SDS011;60613;48.658;2.328;2024-03-17T08:37:51;8.33;;;2.17;;
72575;SDS011;60613;48.658;2.328;2024-03-17T08:40:19;7.75;;;1.88;;
72575;SDS011;60613;48.658;2.328;2024-03-17T08:42:45;8.70;;;2.00;;
72575;SDS011;60613;48.658;2.328;2024-03-17T08:45:11;5.93;;;1.67;;
72575;SDS011;60613;48.658;2.328;2024-03-17T08:47:37;6.38;;;1.80;;
72575;SDS011;60613;48.658;2.328;2024-03-17T08:50:03;6.90;;;1.63;;
72575;SDS011;60613;48.658;2.328;2024-03-17T08:52:29;6.27;;;1.67;;
72575;SDS011;60613;48.658;2.328;2024-03-17T08:54:58;5.85;;;1.60;;
72575;SDS011;60613;48.658;2.328;2024-03-17T08:57:24;6.70;;;1.88;;
72575;SDS011;60613;48.658;2.328;2024-03-17T08:59:50;6.78;;;1.58;;
72575;SDS011;60613;48.658;2.328;2024-03-17T09:02:18;8.07;;;1.70;;
72575;SDS011;60613;48.658;2.328;2024-03-17T09:04:46;5.97;;;1.60;;
72575;SDS011;60613;48.658;2.328;2024-03-17T09:07:11;7.13;;;1.52;;
72575;SDS011;60613;48.658;2.328;2024-03-17T09:09:38;7.05;;;1.50;;
72575;SDS011;60613;48.658;2.328;2024-03-17T09:12:04;5.80;;;1.40;;
72575;SDS011;60613;48.658;2.328;2024-03-17T09:14:30;6.03;;;1.67;;
72575;SDS011;60613;48.658;2.328;2024-03-17T09:16:56;6.72;;;1.60;;
72575;SDS011;60613;48.658;2.328;2024-03-17T09:19:23;5.63;;;1.50;;
72575;SDS011;60613;48.658;2.328;2024-03-17T09:21:49;8.43;;;1.73;;
72575;SDS011;60613;48.658;2.328;2024-03-17T09:24:14;6.23;;;1.87;;
72575;SDS011;60613;48.658;2.328;2024-03-17T09:26:40;6.05;;;1.70;;
72575;SDS011;60613;48.658;2.328;2024-03-17T09:29:05;6.47;;;1.80;;
72575;SDS011;60613;48.658;2.328;2024-03-17T09:31:31;6.28;;;1.50;;
72575;SDS011;60613;48.658;2.328;2024-03-17T09:34:00;7.32;;;1.90;;
72575;SDS011;60613;48.658;2.328;2024-03-17T09:36:29;7.03;;;2.00;;
72575;SDS011;60613;48.658;2.328;2024-03-17T09:38:56;9.13;;;1.80;;
72575;SDS011;60613;48.658;2.328;2024-03-17T09:41:22;7.53;;;1.90;;
72575;SDS011;60613;48.658;2.328;2024-03-17T09:43:54;9.35;;;1.90;;
72575;SDS011;60613;48.658;2.328;2024-03-17T09:46:20;7.53;;;1.50;;
72575;SDS011;60613;48.658;2.328;2024-03-17T09:48:48;7.28;;;1.77;;
72575;SDS011;60613;48.658;2.328;2024-03-17T09:51:21;8.93;;;2.13;;
72575;SDS011;60613;48.658;2.328;2024-03-17T09:53:48;10.73;;;1.92;;
72575;SDS011;60613;48.658;2.328;2024-03-17T09:56:18;10.77;;;1.80;;
72575;SDS011;60613;48.658;2.328;2024-03-17T09:58:45;9.30;;;1.70;;
72575;SDS011;60613;48.658;2.328;2024-03-17T10:01:11;6.18;;;1.70;;
72575;SDS011;60613;48.658;2.328;2024-03-17T10:03:41;7.88;;;1.77;;
72575;SDS011;60613;48.658;2.328;2024-03-17T10:06:14;7.68;;;1.88;;
72575;SDS011;60613;48.658;2.328;2024-03-17T10:08:44;8.45;;;1.55;;
72575;SDS011;60613;48.658;2.328;2024-03-17T10:11:11;8.10;;;1.90;;
72575;SDS011;60613;48.658;2.328;2024-03-17T10:13:38;8.25;;;1.50;;
72575;SDS011;60613;48.658;2.328;2024-03-17T10:16:04;7.25;;;1.67;;
72575;SDS011;60613;48.658;2.328;2024-03-17T10:18:30;7.22;;;1.42;;
72575;SDS011;60613;48.658;2.328;2024-03-17T10:20:56;8.80;;;1.87;;
72575;SDS011;60613;48.658;2.328;2024-03-17T10:23:23;6.32;;;1.80;;
72575;SDS011;60613;48.658;2.328;2024-03-17T10:25:49;6.35;;;1.77;;
72575;SDS011;60613;48.658;2.328;2024-03-17T10:28:16;6.77;;;1.53;;
72575;SDS011;60613;48.658;2.328;2024-03-17T10:30:42;5.93;;;1.30;;
72575;SDS011;60613;48.658;2.328;2024-03-17T10:33:23;7.85;;;1.50;;
72575;SDS011;60613;48.658;2.328;2024-03-17T10:35:59;7.68;;;1.92;;
72575;SDS011;60613;48.658;2.328;2024-03-17T10:38:26;6.25;;;1.40;;
72575;SDS011;60613;48.658;2.328;2024-03-17T10:40:54;6.72;;;1.50;;
72575;SDS011;60613;48.658;2.328;2024-03-17T10:43:20;4.97;;;1.27;;
72575;SDS011;60613;48.658;2.328;2024-03-17T10:45:50;6.40;;;1.67;;
72575;SDS011;60613;48.658;2.328;2024-03-17T10:48:18;8.18;;;1.80;;
72575;SDS011;60613;48.658;2.328;2024-03-17T10:50:47;6.20;;;1.70;;
72575;SDS011;60613;48.658;2.328;2024-03-17T10:53:15;6.32;;;1.95;;
72575;SDS011;60613;48.658;2.328;2024-03-17T10:55:51;6.73;;;1.50;;
72575;SDS011;60613;48.658;2.328;2024-03-17T10:58:36;7.20;;;1.40;;
72575;SDS011;60613;48.658;2.328;2024-03-17T11:01:03;6.72;;;1.50;;
72575;SDS011;60613;48.658;2.328;2024-03-17T11:03:32;6.82;;;1.48;;
72575;SDS011;60613;48.658;2.328;2024-03-17T11:05:59;5.25;;;1.50;;
72575;SDS011;60613;48.658;2.328;2024-03-17T11:08:28;5.80;;;1.43;;
72575;SDS011;60613;48.658;2.328;2024-03-17T11:10:57;6.80;;;2.05;;
72575;SDS011;60613;48.658;2.328;2024-03-17T11:13:23;6.43;;;1.75;;
72575;SDS011;60613;48.658;2.328;2024-03-17T11:15:53;6.47;;;1.70;;
72575;SDS011;60613;48.658;2.328;2024-03-17T11:21:18;5.33;;;1.57;;
72575;SDS011;60613;48.658;2.328;2024-03-17T11:23:57;6.40;;;1.67;;
72575;SDS011;60613;48.658;2.328;2024-03-17T11:26:34;5.03;;;1.45;;
72575;SDS011;60613;48.658;2.328;2024-03-17T11:29:02;5.43;;;1.35;;
72575;SDS011;60613;48.658;2.328;2024-03-17T11:31:41;6.03;;;1.75;;
72575;SDS011;60613;48.658;2.328;2024-03-17T11:36:54;5.97;;;1.63;;
72575;SDS011;60613;48.658;2.328;2024-03-17T11:39:22;6.07;;;1.70;;
72575;SDS011;60613;48.658;2.328;2024-03-17T11:42:24;6.75;;;1.45;;
72575;SDS011;60613;48.658;2.328;2024-03-17T11:47:23;6.70;;;1.40;;
72575;SDS011;60613;48.658;2.328;2024-03-17T11:49:59;5.43;;;1.50;;
72575;SDS011;60613;48.658;2.328;2024-03-17T11:52:31;5.43;;;1.60;;
72575;SDS011;60613;48.658;2.328;2024-03-17T11:54:56;6.33;;;1.60;;
72575;SDS011;60613;48.658;2.328;2024-03-17T11:57:23;6.23;;;1.93;;
72575;SDS011;60613;48.658;2.328;2024-03-17T11:59:50;5.65;;;1.60;;
72575;SDS011;60613;48.658;2.328;2024-03-17T12:04:45;6.23;;;1.40;;
72575;SDS011;60613;48.658;2.328;2024-03-17T12:07:15;4.97;;;1.35;;
72575;SDS011;60613;48.658;2.328;2024-03-17T12:09:42;5.10;;;1.52;;
72575;SDS011;60613;48.658;2.328;2024-03-17T12:12:16;4.57;;;1.40;;
72575;SDS011;60613;48.658;2.328;2024-03-17T12:14:44;5.55;;;1.60;;
72575;SDS011;60613;48.658;2.328;2024-03-17T12:17:11;5.23;;;1.50;;
72575;SDS011;60613;48.658;2.328;2024-03-17T12:19:39;5.03;;;1.40;;
72575;SDS011;60613;48.658;2.328;2024-03-17T12:22:05;6.30;;;1.50;;
72575;SDS011;60613;48.658;2.328;2024-03-17T12:26:58;5.78;;;1.90;;
72575;SDS011;60613;48.658;2.328;2024-03-17T12:31:58;4.82;;;1.45;;
72575;SDS011;60613;48.658;2.328;2024-03-17T12:34:27;4.75;;;1.42;;
72575;SDS011;60613;48.658;2.328;2024-03-17T12:36:54;5.30;;;1.40;;
72575;SDS011;60613;48.658;2.328;2024-03-17T12:39:27;5.90;;;1.60;;
72575;SDS011;60613;48.658;2.328;2024-03-17T12:47:18;4.90;;;1.40;;
72575;SDS011;60613;48.658;2.328;2024-03-17T12:49:51;5.13;;;1.42;;
72575;SDS011;60613;48.658;2.328;2024-03-17T12:52:21;4.28;;;1.30;;
72575;SDS011;60613;48.658;2.328;2024-03-17T12:54:58;4.60;;;1.37;;
72575;SDS011;60613;48.658;2.328;2024-03-17T12:57:45;5.60;;;1.50;;
72575;SDS011;60613;48.658;2.328;2024-03-17T13:00:30;5.60;;;1.30;;
72575;SDS011;60613;48.658;2.328;2024-03-17T13:02:56;5.13;;;1.42;;
72575;SDS011;60613;48.658;2.328;2024-03-17T13:05:22;5.05;;;1.55;;
72575;SDS011;60613;48.658;2.328;2024-03-17T13:07:48;4.93;;;1.57;;
72575;SDS011;60613;48.658;2.328;2024-03-17T13:10:18;5.15;;;1.52;;
72575;SDS011;60613;48.658;2.328;2024-03-17T13:12:44;4.55;;;1.38;;
72575;SDS011;60613;48.658;2.328;2024-03-17T13:15:20;4.85;;;1.40;;
72575;SDS011;60613;48.658;2.328;2024-03-17T13:17:45;4.90;;;1.40;;
72575;SDS011;60613;48.658;2.328;2024-03-17T13:20:15;4.28;;;1.35;;
72575;SDS011;60613;48.658;2.328;2024-03-17T13:22:42;3.95;;;1.13;;
72575;SDS011;60613;48.658;2.328;2024-03-17T13:25:23;5.63;;;1.55;;
72575;SDS011;60613;48.658;2.328;2024-03-17T13:27:52;5.10;;;1.40;;
72575;SDS011;60613;48.658;2.328;2024-03-17T13:30:19;4.53;;;1.50;;
72575;SDS011;60613;48.658;2.328;2024-03-17T13:32:49;4.28;;;1.40;;
72575;SDS011;60613;48.658;2.328;2024-03-17T13:35:21;4.93;;;1.40;;
72575;SDS011;60613;48.658;2.328;2024-03-17T13:37:48;4.68;;;1.20;;
72575;SDS011;60613;48.658;2.328;2024-03-17T13:40:16;3.87;;;1.30;;
72575;SDS011;60613;48.658;2.328;2024-03-17T13:42:46;6.28;;;1.60;;
72575;SDS011;60613;48.658;2.328;2024-03-17T13:45:13;4.63;;;1.38;;
72575;SDS011;60613;48.658;2.328;2024-03-17T13:47:40;4.47;;;1.10;;
72575;SDS011;60613;48.658;2.328;2024-03-17T13:50:06;3.83;;;1.13;;
72575;SDS011;60613;48.658;2.328;2024-03-17T13:52:37;4.20;;;1.15;;
72575;SDS011;60613;48.658;2.328;2024-03-17T13:55:04;5.68;;;1.52;;
72575;SDS011;60613;48.658;2.328;2024-03-17T13:57:33;4.75;;;1.35;;
72575;SDS011;60613;48.658;2.328;2024-03-17T13:59:59;4.17;;;1.10;;
72575;SDS011;60613;48.658;2.328;2024-03-17T14:02:24;4.03;;;1.20;;
72575;SDS011;60613;48.658;2.328;2024-03-17T14:04:50;5.17;;;1.30;;
72575;SDS011;60613;48.658;2.328;2024-03-17T14:07:15;4.13;;;1.30;;
72575;SDS011;60613;48.658;2.328;2024-03-17T14:09:41;4.10;;;1.30;;
72575;SDS011;60613;48.658;2.328;2024-03-17T14:12:10;4.97;;;1.23;;
72575;SDS011;60613;48.658;2.328;2024-03-17T14:14:35;2.80;;;1.10;;
72575;SDS011;60613;48.658;2.328;2024-03-17T14:17:01;4.15;;;1.35;;
72575;SDS011;60613;48.658;2.328;2024-03-17T14:19:26;4.43;;;1.07;;
72575;SDS011;60613;48.658;2.328;2024-03-17T14:21:52;6.73;;;1.30;;
72575;SDS011;60613;48.658;2.328;2024-03-17T14:24:18;4.53;;;1.30;;
72575;SDS011;60613;48.658;2.328;2024-03-17T14:26:43;3.97;;;1.17;;
72575;SDS011;60613;48.658;2.328;2024-03-17T14:29:09;5.07;;;1.23;;
72575;SDS011;60613;48.658;2.328;2024-03-17T14:31:34;4.73;;;1.33;;
72575;SDS011;60613;48.658;2.328;2024-03-17T14:34:05;4.38;;;1.10;;
72575;SDS011;60613;48.658;2.328;2024-03-17T14:36:34;5.22;;;1.35;;
72575;SDS011;60613;48.658;2.328;2024-03-17T14:38:59;3.65;;;1.17;;
72575;SDS011;60613;48.658;2.328;2024-03-17T14:41:31;5.00;;;1.30;;
72575;SDS011;60613;48.658;2.328;2024-03-17T14:43:57;3.67;;;1.00;;
72575;SDS011;60613;48.658;2.328;2024-03-17T14:46:26;3.38;;;1.05;;
72575;SDS011;60613;48.658;2.328;2024-03-17T14:48:52;3.50;;;1.10;;
72575;SDS011;60613;48.658;2.328;2024-03-17T14:51:18;4.03;;;1.40;;
72575;SDS011;60613;48.658;2.328;2024-03-17T14:53:46;3.13;;;1.10;;
72575;SDS011;60613;48.658;2.328;2024-03-17T14:56:17;4.55;;;1.20;;
72575;SDS011;60613;48.658;2.328;2024-03-17T14:58:43;4.55;;;1.20;;
72575;SDS011;60613;48.658;2.328;2024-03-17T15:01:11;4.70;;;1.40;;
72575;SDS011;60613;48.658;2.328;2024-03-17T15:03:37;3.13;;;0.97;;
72575;SDS011;60613;48.658;2.328;2024-03-17T15:06:03;4.03;;;1.02;;
72575;SDS011;60613;48.658;2.328;2024-03-17T15:08:32;3.63;;;1.00;;
72575;SDS011;60613;48.658;2.328;2024-03-17T15:10:58;4.10;;;1.10;;